Time;durP1;ratioP1;P1;durP2;ratioP2;P2;SDS_P1;SDS_P2;PMS_P1;PMS_P2;Temp;Humidity;BMP_temperature;BMP_pressure;BME280_temperature;BME280_humidity;BME280_pressure;Samples;Min_cycle;Max_cycle;Signal;HPM_P1;HPM_P2
2021/04/16 00:01:22;;;;;;;10.32;7.85;;;;;;;0.90;67.12;100787.97;4971400;28;20039;-68
2021/04/16 00:03:48;;;;;;;13.95;9.57;;;;;;;0.85;66.83;100789.69;4971650;28;20051;-68
2021/04/16 00:06:13;;;;;;;15.65;8.05;;;;;;;0.84;67.21;100790.53;4953604;28;20031;-70
2021/04/16 00:08:38;;;;;;;9.82;7.32;;;;;;;0.80;67.27;100787.03;4970827;28;20471;-68
2021/04/16 00:11:17;;;;;;;11.20;8.15;;;;;;;0.82;67.19;100785.34;4971478;28;20038;-69
2021/04/16 00:13:43;;;;;;;11.85;7.85;;;;;;;0.76;67.09;100781.81;4970694;28;20495;-69
2021/04/16 00:16:13;;;;;;;10.00;7.63;;;;;;;0.72;67.15;100785.28;4970577;28;20045;-69
2021/04/16 00:18:38;;;;;;;11.95;7.28;;;;;;;0.72;67.39;100791.31;4970582;28;20045;-69
2021/04/16 00:21:04;;;;;;;14.32;9.20;;;;;;;0.73;67.61;100785.25;4971559;28;20035;-69
2021/04/16 00:23:29;;;;;;;9.98;7.47;;;;;;;0.70;67.92;100781.78;4970938;28;20050;-68
2021/04/16 00:25:55;;;;;;;12.45;8.05;;;;;;;0.62;68.19;100781.75;4970949;28;20461;-69
2021/04/16 00:28:22;;;;;;;13.50;9.70;;;;;;;0.55;68.45;100786.00;4970495;28;20065;-69
2021/04/16 00:31:00;;;;;;;14.93;8.73;;;;;;;0.53;68.11;100782.53;4953329;28;20035;-68
2021/04/16 00:33:27;;;;;;;13.43;9.45;;;;;;;0.50;68.59;100787.69;4932373;29;20361;-69
2021/04/16 00:35:53;;;;;;;14.05;8.85;;;;;;;0.49;68.96;100778.16;4932151;29;20032;-69
2021/04/16 00:38:20;;;;;;;11.05;8.10;;;;;;;0.47;68.99;100777.31;4931941;29;20092;-69
2021/04/16 00:40:49;;;;;;;12.30;9.20;;;;;;;0.45;68.54;100775.56;4931606;29;20124;-69
2021/04/16 00:43:17;;;;;;;12.73;9.00;;;;;;;0.43;68.83;100772.94;4932000;28;20036;-69
2021/04/16 00:45:43;;;;;;;11.82;8.55;;;;;;;0.42;68.44;100769.47;4931962;29;20583;-70
2021/04/16 00:48:25;;;;;;;11.32;9.02;;;;;;;0.41;69.07;100772.06;4931859;29;20183;-70
2021/04/16 00:50:54;;;;;;;12.95;8.30;;;;;;;0.37;69.30;100768.59;4931994;29;20062;-69
2021/04/16 00:53:21;;;;;;;12.73;8.18;;;;;;;0.35;68.88;100767.69;4931876;29;20110;-69
2021/04/16 00:55:48;;;;;;;10.55;8.13;;;;;;;0.34;69.32;100765.06;4931902;29;20031;-69
2021/04/16 00:58:14;;;;;;;13.98;9.10;;;;;;;0.26;69.44;100758.97;4938928;28;20039;-69
2021/04/16 01:00:44;;;;;;;11.23;7.93;;;;;;;0.22;69.16;100755.47;4928719;28;20042;-68
2021/04/16 01:03:10;;;;;;;17.27;8.73;;;;;;;0.22;69.04;100763.25;4952383;28;20070;-70
2021/04/16 01:05:36;;;;;;;10.63;8.20;;;;;;;0.20;69.46;100750.28;4958709;28;20070;-69
2021/04/16 01:08:03;;;;;;;14.55;10.80;;;;;;;0.18;69.56;100754.56;4968506;28;20035;-69
2021/04/16 01:10:28;;;;;;;16.20;10.95;;;;;;;0.16;70.13;100748.50;4971259;28;20070;-70
2021/04/16 01:12:53;;;;;;;13.05;8.80;;;;;;;0.17;69.50;100749.38;4974146;28;20061;-69
2021/04/16 01:15:37;;;;;;;11.82;7.53;;;;;;;0.21;68.92;100745.97;4974197;28;20039;-69
2021/04/16 01:18:16;;;;;;;13.95;9.00;;;;;;;0.20;69.19;100739.91;4973911;28;20047;-70
2021/04/16 01:20:44;;;;;;;12.45;8.00;;;;;;;0.18;68.93;100743.34;4974592;28;20039;-69
2021/04/16 01:23:35;;;;;;;11.88;7.70;;;;;;;0.21;69.12;100744.22;4975440;28;20174;-70
2021/04/16 01:26:03;;;;;;;13.70;9.68;;;;;;;0.14;69.35;100739.84;4976924;28;20061;-69
2021/04/16 01:28:28;;;;;;;12.85;9.75;;;;;;;0.16;69.87;100738.13;4959357;28;20039;-70
2021/04/16 01:30:55;;;;;;;11.52;8.93;;;;;;;0.10;69.75;100740.69;4935562;29;20034;-69
2021/04/16 01:33:21;;;;;;;10.77;8.20;;;;;;;0.07;69.74;100739.78;4936109;29;20059;-70
2021/04/16 01:35:47;;;;;;;13.88;9.50;;;;;;;0.08;69.43;100742.41;4935292;29;20500;-69
2021/04/16 01:38:12;;;;;;;12.90;8.63;;;;;;;0.11;69.44;100745.00;4934964;29;20056;-70
2021/04/16 01:40:38;;;;;;;13.98;7.85;;;;;;;0.13;69.35;100745.91;4934103;29;20043;-71
2021/04/16 01:43:26;;;;;;;13.13;8.38;;;;;;;0.13;69.09;100752.81;4935125;29;20023;-69
2021/04/16 01:46:12;;;;;;;9.00;6.95;;;;;;;0.13;69.16;100750.22;4934482;29;20624;-70
2021/04/16 01:48:48;;;;;;;12.27;6.95;;;;;;;0.12;68.94;100743.28;4934796;29;20407;-69
2021/04/16 01:51:22;;;;;;;17.70;8.82;;;;;;;0.08;69.35;100738.94;4935238;28;20052;-68
2021/04/16 01:53:48;;;;;;;14.32;9.95;;;;;;;-0.04;69.29;100732.78;4935196;28;20518;-69
2021/04/16 01:56:14;;;;;;;12.05;10.18;;;;;;;-0.11;69.86;100737.91;4934523;29;20036;-70
2021/04/16 01:58:39;;;;;;;10.20;8.40;;;;;;;-0.17;70.54;100737.81;4934918;28;20039;-69
2021/04/16 02:01:06;;;;;;;12.68;7.43;;;;;;;-0.16;70.52;100736.97;4941554;28;20118;-70
2021/04/16 02:03:32;;;;;;;16.17;8.95;;;;;;;-0.15;70.74;100736.97;4964596;28;20031;-69
2021/04/16 02:05:58;;;;;;;13.73;7.80;;;;;;;-0.13;70.85;100735.28;4953751;28;20031;-69
2021/04/16 02:08:24;;;;;;;16.75;8.80;;;;;;;-0.15;70.61;100734.38;4969285;28;20375;-69
2021/04/16 02:10:49;;;;;;;18.92;7.30;;;;;;;-0.16;70.79;100731.81;4973629;28;20058;-68
2021/04/16 02:13:15;;;;;;;14.13;9.27;;;;;;;-0.16;71.53;100732.66;4965881;28;20424;-69
2021/04/16 02:15:40;;;;;;;15.93;8.65;;;;;;;-0.18;71.03;100726.59;4959975;28;20390;-70
2021/04/16 02:18:06;;;;;;;13.98;8.48;;;;;;;-0.18;70.85;100736.09;4944443;28;20027;-69
2021/04/16 02:20:32;;;;;;;18.80;10.25;;;;;;;-0.22;70.83;100725.72;4968503;28;20494;-69
2021/04/16 02:22:57;;;;;;;14.50;8.90;;;;;;;-0.24;70.55;100735.19;4972673;28;20039;-69
2021/04/16 02:25:23;;;;;;;15.15;8.38;;;;;;;-0.29;71.11;100726.50;4972215;28;20486;-69
2021/04/16 02:27:49;;;;;;;13.95;8.80;;;;;;;-0.24;70.38;100727.41;4973430;28;20495;-69
2021/04/16 02:30:25;;;;;;;14.23;9.70;;;;;;;-0.24;71.01;100724.81;4972919;28;20130;-69
2021/04/16 02:32:51;;;;;;;14.73;8.32;;;;;;;-0.25;70.73;100722.19;4948544;28;20031;-70
2021/04/16 02:35:17;;;;;;;14.68;10.15;;;;;;;-0.26;70.99;100728.25;4964442;28;20170;-69
2021/04/16 02:37:42;;;;;;;15.90;7.68;;;;;;;-0.30;70.79;100729.06;4972274;28;20243;-69
2021/04/16 02:40:11;;;;;;;13.48;9.32;;;;;;;-0.26;70.80;100733.44;4972734;28;20042;-68
2021/04/16 02:42:36;;;;;;;16.88;10.07;;;;;;;-0.29;70.74;100726.50;4972710;28;20039;-69
2021/04/16 02:45:04;;;;;;;13.93;9.68;;;;;;;-0.28;71.24;100727.34;4972511;28;20030;-69
2021/04/16 02:47:29;;;;;;;11.95;9.65;;;;;;;-0.31;71.22;100720.44;4972382;28;20037;-69
2021/04/16 02:49:55;;;;;;;16.85;11.68;;;;;;;-0.33;71.23;100727.31;4973157;28;20035;-70
2021/04/16 02:52:20;;;;;;;15.40;11.32;;;;;;;-0.38;71.43;100721.22;4976710;28;20581;-69
2021/04/16 02:54:45;;;;;;;14.50;10.40;;;;;;;-0.45;71.28;100724.59;4972217;28;20496;-69
2021/04/16 02:57:11;;;;;;;11.95;8.52;;;;;;;-0.52;71.53;100717.59;4971989;28;20045;-69
2021/04/16 02:59:36;;;;;;;15.55;9.43;;;;;;;-0.50;71.20;100721.94;4972685;28;20035;-68
2021/04/16 03:02:02;;;;;;;10.07;8.27;;;;;;;-0.49;71.78;100717.66;4958516;28;20066;-69
2021/04/16 03:04:27;;;;;;;16.45;12.45;;;;;;;-0.48;71.87;100720.25;4966254;28;20039;-68
2021/04/16 03:06:53;;;;;;;14.13;9.80;;;;;;;-0.49;71.83;100725.44;4969401;28;20447;-69
2021/04/16 03:09:18;;;;;;;12.82;9.32;;;;;;;-0.54;71.38;100711.53;4972124;28;20072;-71
2021/04/16 03:11:43;;;;;;;12.95;9.07;;;;;;;-0.55;71.61;100723.63;4971993;28;20545;-68
2021/04/16 03:14:09;;;;;;;15.10;11.40;;;;;;;-0.55;71.72;100712.41;4967508;28;20434;-70
2021/04/16 03:16:35;;;;;;;15.45;9.75;;;;;;;-0.55;71.58;100718.44;4954747;28;20035;-69
2021/04/16 03:19:02;;;;;;;15.45;11.82;;;;;;;-0.53;71.75;100719.34;4955859;28;20367;-69
2021/04/16 03:21:29;;;;;;;14.05;9.07;;;;;;;-0.45;71.50;100722.00;4971569;28;20093;-69
2021/04/16 03:23:54;;;;;;;11.75;7.72;;;;;;;-0.44;71.03;100716.84;4956740;28;20152;-70
2021/04/16 03:26:20;;;;;;;17.42;11.60;;;;;;;-0.50;71.01;100721.94;4934105;29;20052;-69
2021/04/16 03:28:46;;;;;;;16.35;9.48;;;;;;;-0.56;71.79;100721.03;4933690;29;20167;-70
2021/04/16 03:31:12;;;;;;;16.17;8.75;;;;;;;-0.59;71.82;100710.63;4940973;28;20030;-69
2021/04/16 03:33:39;;;;;;;11.45;8.40;;;;;;;-0.54;72.02;100719.31;4970599;28;20038;-70
2021/04/16 03:36:05;;;;;;;21.55;10.48;;;;;;;-0.55;71.92;100717.56;4971244;28;20055;-69
2021/04/16 03:38:30;;;;;;;17.83;10.63;;;;;;;-0.53;72.00;100708.09;4971106;28;20038;-69
2021/04/16 03:40:56;;;;;;;20.17;10.38;;;;;;;-0.54;71.57;100711.53;4971558;28;20066;-69
2021/04/16 03:43:21;;;;;;;15.43;9.60;;;;;;;-0.55;71.39;100715.84;4965062;28;20551;-69
2021/04/16 03:45:46;;;;;;;14.15;10.75;;;;;;;-0.54;71.85;100711.53;4952451;28;20031;-69
2021/04/16 03:48:11;;;;;;;19.52;10.90;;;;;;;-0.59;71.61;100718.38;4952869;28;20045;-70
2021/04/16 03:50:38;;;;;;;15.68;10.18;;;;;;;-0.65;71.82;100720.06;4952697;28;20031;-70
2021/04/16 03:53:04;;;;;;;13.52;8.98;;;;;;;-0.63;71.82;100720.09;4952816;28;20035;-70
2021/04/16 03:55:32;;;;;;;13.13;7.82;;;;;;;-0.60;72.17;100729.59;4952545;28;20031;-70
2021/04/16 03:57:58;;;;;;;11.63;8.68;;;;;;;-0.54;71.70;100727.06;4952793;28;20035;-71
2021/04/16 04:00:29;;;;;;;15.38;8.30;;;;;;;-0.54;71.37;100716.72;4952490;28;20035;-71
2021/04/16 04:02:55;;;;;;;13.07;8.52;;;;;;;-0.52;71.77;100721.06;4952422;28;20556;-68
2021/04/16 04:05:20;;;;;;;13.35;9.13;;;;;;;-0.50;71.66;100716.75;4935258;29;20031;-69
2021/04/16 04:07:46;;;;;;;14.50;12.15;;;;;;;-0.52;71.65;100715.00;4948447;28;20542;-69
2021/04/16 04:10:12;;;;;;;14.93;10.27;;;;;;;-0.59;72.16;100727.03;4962410;28;20031;-69
2021/04/16 04:12:38;;;;;;;11.73;7.57;;;;;;;-0.58;71.88;100720.13;4963024;28;20117;-69
2021/04/16 04:15:05;;;;;;;14.05;9.73;;;;;;;-0.55;71.90;100731.38;4953688;28;20174;-70
2021/04/16 04:17:34;;;;;;;15.32;8.93;;;;;;;-0.59;71.99;100726.16;4970966;28;20035;-69
2021/04/16 04:20:01;;;;;;;16.23;10.32;;;;;;;-0.62;72.17;100729.56;4970990;28;20035;-70
2021/04/16 04:22:27;;;;;;;13.98;9.35;;;;;;;-0.63;71.94;100729.56;4971589;28;20379;-69
2021/04/16 04:24:52;;;;;;;11.63;8.43;;;;;;;-0.58;72.11;100726.19;4971640;28;20034;-69
2021/04/16 04:27:19;;;;;;;13.65;9.85;;;;;;;-0.51;71.74;100729.72;4970581;28;20030;-70
2021/04/16 04:29:45;;;;;;;13.38;9.60;;;;;;;-0.52;71.50;100727.97;4971134;28;20030;-69
2021/04/16 04:32:10;;;;;;;16.92;11.95;;;;;;;-0.53;71.49;100729.69;4971162;28;20037;-70
2021/04/16 04:34:36;;;;;;;16.15;9.07;;;;;;;-0.54;72.25;100733.16;4953396;28;20039;-69
2021/04/16 04:37:03;;;;;;;16.35;10.50;;;;;;;-0.55;71.96;100730.53;4970305;28;20125;-69
2021/04/16 04:39:34;;;;;;;20.50;11.23;;;;;;;-0.60;72.02;100733.06;4970916;28;20125;-69
2021/04/16 04:42:03;;;;;;;20.73;12.75;;;;;;;-0.58;71.85;100735.69;4970721;28;20031;-69
2021/04/16 04:44:28;;;;;;;14.70;9.80;;;;;;;-0.52;71.79;100738.31;4942206;28;20130;-71
2021/04/16 04:46:54;;;;;;;19.98;12.65;;;;;;;-0.48;71.92;100740.97;4932911;29;20122;-71
2021/04/16 04:49:20;;;;;;;12.50;9.52;;;;;;;-0.41;71.69;100736.72;4932302;29;20036;-70
2021/04/16 04:51:46;;;;;;;16.45;9.60;;;;;;;-0.33;71.58;100744.59;4932110;28;20051;-70
2021/04/16 04:54:12;;;;;;;12.20;9.40;;;;;;;-0.25;71.06;100743.81;4932409;29;20111;-69
2021/04/16 04:56:38;;;;;;;21.48;9.77;;;;;;;-0.17;70.85;100749.06;4932158;29;20065;-70
2021/04/16 04:59:04;;;;;;;19.45;10.90;;;;;;;-0.12;70.79;100746.53;4933098;29;20067;-70
2021/04/16 05:01:29;;;;;;;14.45;9.18;;;;;;;-0.07;70.64;100747.44;4947951;28;20101;-69
2021/04/16 05:03:55;;;;;;;13.07;9.98;;;;;;;-0.01;70.93;100744.91;4960854;28;20479;-69
2021/04/16 05:06:20;;;;;;;13.85;8.38;;;;;;;0.03;70.49;100746.66;4953279;28;20058;-69
2021/04/16 05:08:45;;;;;;;18.25;10.70;;;;;;;0.09;70.48;100743.25;4952975;28;20039;-68
2021/04/16 05:11:11;;;;;;;15.45;9.05;;;;;;;0.17;70.67;100746.78;4935100;28;20044;-69
2021/04/16 05:13:37;;;;;;;12.63;9.55;;;;;;;0.25;70.73;100742.53;4952563;28;20043;-70
2021/04/16 05:16:03;;;;;;;21.45;11.63;;;;;;;0.33;69.69;100748.66;4952302;28;20095;-69
2021/04/16 05:18:29;;;;;;;26.23;13.52;;;;;;;0.34;70.32;100746.91;4952677;28;20050;-69
2021/04/16 05:20:54;;;;;;;15.85;10.00;;;;;;;0.37;70.02;100742.63;4953904;28;20037;-69
2021/04/16 05:23:20;;;;;;;17.08;10.95;;;;;;;0.44;69.94;100740.94;4956590;28;20095;-69
2021/04/16 05:25:45;;;;;;;15.68;10.63;;;;;;;0.54;69.29;100735.00;4963340;28;20050;-69
2021/04/16 05:28:10;;;;;;;16.08;8.93;;;;;;;0.61;69.63;100728.94;4956955;28;20043;-69
2021/04/16 05:30:36;;;;;;;16.08;11.00;;;;;;;0.68;68.94;100729.00;4958454;28;20050;-70
2021/04/16 05:33:02;;;;;;;15.70;10.23;;;;;;;0.69;69.45;100722.94;4956951;28;20039;-69
2021/04/16 05:35:28;;;;;;;16.27;10.40;;;;;;;0.79;69.26;100728.22;4955672;28;20046;-70
2021/04/16 05:37:57;;;;;;;21.20;10.73;;;;;;;0.82;69.45;100740.34;4953995;28;20051;-69
2021/04/16 05:40:26;;;;;;;14.80;11.20;;;;;;;0.90;69.39;100736.06;4954934;28;20037;-68
2021/04/16 05:42:53;;;;;;;14.93;9.77;;;;;;;0.99;68.47;100735.25;4954366;28;20043;-70
2021/04/16 05:45:20;;;;;;;15.73;11.35;;;;;;;1.01;68.42;100736.09;4952709;28;20446;-69
2021/04/16 05:47:45;;;;;;;12.82;9.60;;;;;;;1.01;68.26;100742.19;4952669;28;20034;-70
2021/04/16 05:50:12;;;;;;;13.45;9.98;;;;;;;1.05;68.36;100737.88;4952620;28;20043;-69
2021/04/16 05:52:37;;;;;;;17.45;12.10;;;;;;;1.14;68.93;100731.84;4951300;28;20511;-69
2021/04/16 05:55:03;;;;;;;17.05;10.57;;;;;;;1.25;67.80;100725.81;4952646;28;20042;-70
2021/04/16 05:57:29;;;;;;;18.73;12.05;;;;;;;1.34;67.77;100719.81;4955175;28;20122;-69
2021/04/16 05:59:54;;;;;;;18.80;10.43;;;;;;;1.45;67.28;100727.63;4952311;28;20134;-70
2021/04/16 06:02:29;;;;;;;17.85;8.23;;;;;;;1.61;66.96;100725.97;4941053;28;20119;-70
2021/04/16 06:04:55;;;;;;;21.13;9.70;;;;;;;1.72;67.03;100721.63;4966116;28;20035;-70
2021/04/16 06:07:22;;;;;;;16.92;10.90;;;;;;;1.80;67.07;100727.72;4974255;28;20062;-71
2021/04/16 06:09:48;;;;;;;22.90;10.38;;;;;;;1.85;67.06;100727.75;4974749;28;20521;-69
2021/04/16 06:12:13;;;;;;;19.00;11.07;;;;;;;1.98;66.53;100723.41;4975507;28;20117;-68
2021/04/16 06:14:43;;;;;;;19.33;10.75;;;;;;;2.10;66.41;100726.88;4973514;28;20125;-69
2021/04/16 06:17:10;;;;;;;12.07;9.20;;;;;;;2.18;66.28;100728.63;4956290;28;20565;-71
2021/04/16 06:19:36;;;;;;;18.63;10.52;;;;;;;2.19;65.91;100728.66;4957004;28;20042;-70
2021/04/16 06:22:02;;;;;;;18.65;9.65;;;;;;;2.20;66.26;100729.50;4973075;28;20038;-70
2021/04/16 06:24:27;;;;;;;19.33;9.88;;;;;;;2.32;66.02;100726.91;4957960;28;20553;-70
2021/04/16 06:26:53;;;;;;;19.50;11.05;;;;;;;2.47;65.25;100726.03;4974643;28;20034;-71
2021/04/16 06:29:18;;;;;;;11.38;9.25;;;;;;;2.62;65.16;100730.34;4973737;28;20038;-69
2021/04/16 06:31:43;;;;;;;19.52;11.13;;;;;;;2.84;64.01;100724.22;4973990;28;20038;-70
2021/04/16 06:34:09;;;;;;;17.70;10.68;;;;;;;3.04;63.44;100731.97;4973449;28;20375;-69
2021/04/16 06:36:34;;;;;;;13.50;9.88;;;;;;;3.35;62.85;100722.31;4956177;28;20402;-70
2021/04/16 06:39:00;;;;;;;19.25;11.68;;;;;;;3.68;61.58;100723.00;4973478;28;20094;-70
2021/04/16 06:41:31;;;;;;;20.25;12.93;;;;;;;3.96;60.64;100721.06;4974240;28;20058;-70
2021/04/16 06:44:06;;;;;;;19.95;12.27;;;;;;;4.17;60.04;100724.41;4974652;28;20058;-70
2021/04/16 06:46:35;;;;;;;18.97;11.47;;;;;;;4.44;59.54;100718.09;4959246;28;20150;-70
2021/04/16 06:49:10;;;;;;;23.85;11.85;;;;;;;4.62;58.61;100720.50;4941245;28;20043;-70
2021/04/16 06:51:47;;;;;;;28.13;14.18;;;;;;;4.76;57.61;100727.34;4934455;28;20115;-70
2021/04/16 06:54:22;;;;;;;24.27;12.90;;;;;;;4.97;57.22;100727.09;4934174;28;20042;-69
2021/04/16 06:56:51;;;;;;;22.25;13.05;;;;;;;5.21;56.55;100725.09;4943652;28;20047;-71
2021/04/16 06:59:24;;;;;;;16.83;11.30;;;;;;;5.40;55.74;100726.59;4945090;28;20043;-71
2021/04/16 07:02:08;;;;;;;17.00;11.38;;;;;;;5.64;54.62;100728.03;4925311;28;20047;-71
2021/04/16 07:04:52;;;;;;;15.25;10.63;;;;;;;5.94;54.57;100733.75;4944491;28;20035;-70
2021/04/16 07:07:33;;;;;;;18.15;11.85;;;;;;;6.24;53.46;100727.16;4929862;28;20091;-70
2021/04/16 07:10:27;;;;;;;15.32;9.50;;;;;;;6.53;52.40;100733.66;4944514;28;20142;-70
2021/04/16 07:12:54;;;;;;;17.88;11.27;;;;;;;6.58;52.15;100726.59;4944654;28;20032;-71
2021/04/16 07:15:23;;;;;;;21.50;11.85;;;;;;;6.48;52.27;100736.38;4941881;28;20036;-71
2021/04/16 07:17:49;;;;;;;17.17;11.18;;;;;;;6.35;51.76;100734.81;4943256;28;20059;-70
2021/04/16 07:20:20;;;;;;;13.38;10.23;;;;;;;6.44;51.77;100746.00;4942850;28;20039;-70
2021/04/16 07:22:51;;;;;;;17.42;9.40;;;;;;;6.66;51.40;100746.50;4950402;28;20064;-70
2021/04/16 07:25:45;;;;;;;19.23;9.30;;;;;;;7.01;49.93;100742.38;4941264;28;20031;-71
2021/04/16 07:28:35;;;;;;;12.82;9.90;;;;;;;7.18;49.31;100742.03;4943067;28;20065;-72
2021/04/16 07:31:24;;;;;;;16.38;10.85;;;;;;;7.65;48.85;100740.19;4934776;28;20045;-70
2021/04/16 07:33:49;;;;;;;14.02;9.52;;;;;;;7.77;47.58;100743.44;4921172;29;20046;-70
2021/04/16 07:36:28;;;;;;;14.45;9.45;;;;;;;8.15;46.88;100742.59;4938662;28;20039;-71
2021/04/16 07:39:08;;;;;;;15.57;8.82;;;;;;;7.99;47.34;100738.56;4953079;28;20050;-71
2021/04/16 07:41:39;;;;;;;11.93;8.20;;;;;;;8.17;47.03;100739.00;4926578;28;20075;-69
2021/04/16 07:44:05;;;;;;;15.90;7.90;;;;;;;8.15;47.08;100745.22;4951362;28;20054;-69
2021/04/16 07:46:38;;;;;;;12.82;8.48;;;;;;;8.16;46.88;100737.28;4934935;28;20531;-70
2021/04/16 07:49:13;;;;;;;17.48;8.82;;;;;;;8.03;46.74;100737.63;4953315;28;20024;-70
2021/04/16 07:51:40;;;;;;;16.15;8.45;;;;;;;7.99;47.26;100741.19;4953396;28;20045;-68
2021/04/16 07:54:23;;;;;;;21.27;8.77;;;;;;;8.17;47.59;100740.75;4953433;28;20050;-70
2021/04/16 07:57:01;;;;;;;19.55;8.52;;;;;;;8.11;47.37;100747.03;4952512;28;20073;-70
2021/04/16 07:59:27;;;;;;;16.27;9.57;;;;;;;8.04;47.12;100734.94;4953862;28;20055;-71
2021/04/16 08:01:52;;;;;;;18.70;8.50;;;;;;;8.24;46.99;100738.84;4935862;29;20055;-68
2021/04/16 08:04:23;;;;;;;15.13;8.82;;;;;;;8.16;47.64;100737.28;4955995;28;20051;-67
2021/04/16 08:06:52;;;;;;;13.43;8.63;;;;;;;8.10;47.97;100741.84;4960635;28;20039;-66
2021/04/16 08:09:26;;;;;;;11.63;8.75;;;;;;;7.87;48.52;100732.69;4933514;28;20040;-68
2021/04/16 08:12:09;;;;;;;14.82;9.05;;;;;;;7.78;48.53;100738.19;4934110;28;20084;-68
2021/04/16 08:14:38;;;;;;;18.10;7.63;;;;;;;7.76;48.78;100726.00;4934758;29;20061;-66
2021/04/16 08:17:27;;;;;;;11.95;8.50;;;;;;;7.84;48.86;100730.16;4947273;28;20116;-65
2021/04/16 08:19:53;;;;;;;11.77;7.88;;;;;;;8.04;48.41;100729.69;4962968;28;20131;-66
2021/04/16 08:22:33;;;;;;;14.13;8.48;;;;;;;8.36;48.06;100734.16;4973492;28;20069;-66
2021/04/16 08:25:01;;;;;;;13.23;7.82;;;;;;;9.24;45.89;100726.59;4972670;28;20517;-66
2021/04/16 08:27:55;;;;;;;10.68;8.27;;;;;;;9.99;43.68;100727.00;4972315;28;20030;-64
2021/04/16 08:30:25;;;;;;;15.68;8.35;;;;;;;9.85;43.82;100724.78;4954248;28;20050;-65
2021/04/16 08:33:05;;;;;;;12.38;7.15;;;;;;;9.98;44.06;100729.66;4968458;28;20030;-67
2021/04/16 08:35:38;;;;;;;13.48;8.00;;;;;;;10.24;42.53;100731.47;4951932;28;20039;-64
2021/04/16 08:38:10;;;;;;;9.95;7.55;;;;;;;10.67;41.91;100725.63;4946809;28;20135;-68
2021/04/16 08:40:41;;;;;;;11.07;6.88;;;;;;;11.01;41.19;100728.88;4942854;28;20124;-68
2021/04/16 08:43:17;;;;;;;13.13;7.80;;;;;;;10.91;41.05;100721.28;4930264;28;20028;-69
2021/04/16 08:45:42;;;;;;;26.30;8.63;;;;;;;11.09;40.55;100725.03;4927251;29;20365;-67
2021/04/16 08:48:32;;;;;;;10.68;7.72;;;;;;;11.23;40.48;100726.31;4929969;28;20079;-67
2021/04/16 08:51:05;;;;;;;10.02;8.48;;;;;;;11.20;40.71;100727.28;4926940;29;20063;-67
2021/04/16 08:53:30;;;;;;;17.65;7.18;;;;;;;11.52;39.71;100723.44;4953208;28;20132;-66
2021/04/16 08:55:56;;;;;;;9.50;6.05;;;;;;;11.82;36.96;100720.53;4955549;28;20035;-66
2021/04/16 08:58:27;;;;;;;7.97;5.70;;;;;;;11.98;36.78;100711.09;4957155;28;20039;-66
2021/04/16 09:01:26;;;;;;;8.95;6.70;;;;;;;11.86;37.25;100722.13;4960988;28;20058;-65
2021/04/16 09:04:11;;;;;;;7.55;5.60;;;;;;;12.08;36.74;100716.88;4956224;28;20069;-66
2021/04/16 09:06:37;;;;;;;14.23;6.63;;;;;;;11.92;36.53;100711.34;4963881;28;20097;-69
2021/04/16 09:09:06;;;;;;;13.25;6.15;;;;;;;11.72;37.71;100716.53;4963922;28;20042;-69
2021/04/16 09:11:44;;;;;;;12.35;6.05;;;;;;;11.72;37.48;100711.25;4929290;28;20149;-69
2021/04/16 09:14:32;;;;;;;8.30;6.22;;;;;;;11.39;37.97;100715.13;4909210;29;20483;-70
2021/04/16 09:17:02;;;;;;;10.43;6.25;;;;;;;11.06;38.92;100714.59;4927296;28;20044;-69
2021/04/16 09:19:28;;;;;;;8.38;6.20;;;;;;;11.03;39.18;100709.44;4945989;28;20038;-69
2021/04/16 09:22:03;;;;;;;12.32;5.97;;;;;;;10.98;38.76;100710.50;4946564;28;20039;-69
2021/04/16 09:24:53;;;;;;;10.50;7.13;;;;;;;11.00;39.52;100706.03;4946293;28;20039;-70
2021/04/16 09:27:38;;;;;;;7.57;5.68;;;;;;;11.29;38.88;100708.44;4935183;28;20071;-71
2021/04/16 09:30:06;;;;;;;10.13;5.07;;;;;;;11.23;36.82;100713.13;4925800;29;20051;-74
2021/04/16 09:32:35;;;;;;;8.48;5.28;;;;;;;11.42;36.96;100702.72;4930279;29;20035;-69
2021/04/16 09:35:11;;;;;;;10.90;6.28;;;;;;;11.65;36.35;100707.97;4963195;28;20034;-69
2021/04/16 09:37:42;;;;;;;9.75;5.32;;;;;;;11.66;36.20;100701.75;4971338;28;20046;-70
2021/04/16 09:40:20;;;;;;;11.10;4.95;;;;;;;12.08;35.62;100701.00;4971239;28;20033;-70
2021/04/16 09:42:54;;;;;;;10.45;5.35;;;;;;;12.78;34.84;100702.47;4958500;28;20039;-71
2021/04/16 09:45:32;;;;;;;12.68;5.57;;;;;;;13.13;33.67;100701.84;4956845;28;20491;-69
2021/04/16 09:48:01;;;;;;;7.10;5.00;;;;;;;13.59;33.58;100705.91;4958980;28;20066;-70
2021/04/16 09:50:41;;;;;;;10.80;5.25;;;;;;;14.01;32.31;100695.97;4950083;28;20043;-70
2021/04/16 09:53:19;;;;;;;7.85;5.70;;;;;;;12.87;33.56;100703.84;4938767;28;20039;-70
2021/04/16 09:56:00;;;;;;;7.93;6.25;;;;;;;12.39;35.38;100702.41;4949399;28;20106;-70
2021/04/16 09:58:48;;;;;;;7.18;5.05;;;;;;;11.88;35.90;100693.03;4949366;28;20094;-69
2021/04/16 10:01:21;;;;;;;13.70;7.03;;;;;;;11.77;36.63;100696.94;4941104;28;20411;-69
2021/04/16 10:03:50;;;;;;;8.40;6.07;;;;;;;11.68;37.03;100686.72;4950618;28;20182;-69
2021/04/16 10:06:49;;;;;;;9.75;6.13;;;;;;;11.53;37.18;100689.97;4949698;28;20043;-68
2021/04/16 10:09:20;;;;;;;9.00;6.85;;;;;;;11.32;37.99;100684.59;4948557;28;20046;-69
2021/04/16 10:12:07;;;;;;;11.43;6.13;;;;;;;11.11;38.98;100691.53;4950062;28;20070;-69
2021/04/16 10:14:36;;;;;;;12.73;6.38;;;;;;;10.97;39.10;100688.53;4931068;28;20130;-69
2021/04/16 10:17:03;;;;;;;31.52;7.88;;;;;;;11.01;38.83;100690.16;4950684;28;20051;-71
2021/04/16 10:19:34;;;;;;;13.55;6.15;;;;;;;10.85;38.61;100695.09;4956646;28;20035;-70
2021/04/16 10:22:09;;;;;;;12.07;5.88;;;;;;;11.16;38.87;100691.34;4966743;28;20047;-68
2021/04/16 10:56:23;;;;;;;8.05;4.72;;;;;;;13.08;33.33;100660.53;4946746;28;20109;-68
2021/04/16 12:39:17;;;;;;;7.60;6.13;;;;;;;10.36;37.08;100601.94;4927215;29;20151;-69
2021/04/16 12:41:48;;;;;;;6.75;5.50;;;;;;;10.16;38.20;100593.81;4926701;29;20039;-68
2021/04/16 12:44:37;;;;;;;13.95;5.93;;;;;;;10.05;38.33;100602.97;4926842;29;20095;-69
2021/04/16 12:47:06;;;;;;;17.50;5.70;;;;;;;10.09;38.36;100601.06;4942006;28;20530;-69
2021/04/16 12:49:31;;;;;;;9.25;6.30;;;;;;;10.19;37.44;100604.25;4965468;28;20051;-70
2021/04/16 12:51:57;;;;;;;10.05;5.30;;;;;;;10.38;36.57;100605.34;4952639;28;20039;-69
2021/04/16 12:54:22;;;;;;;7.75;6.20;;;;;;;10.43;36.08;100597.28;4946211;28;20114;-70
2021/04/16 12:56:49;;;;;;;9.18;7.00;;;;;;;10.36;36.50;100591.41;4946864;28;20046;-70
2021/04/16 12:59:25;;;;;;;6.22;5.45;;;;;;;10.42;36.49;100585.91;4947342;28;20118;-70
2021/04/16 13:01:52;;;;;;;6.85;5.47;;;;;;;10.62;37.18;100594.88;4959797;28;20066;-70
2021/04/16 13:04:22;;;;;;;8.60;5.45;;;;;;;10.81;36.78;100590.63;4965012;28;20042;-69
2021/04/16 13:06:49;;;;;;;19.35;5.28;;;;;;;10.97;36.13;100598.81;4967952;28;20043;-70
2021/04/16 13:09:17;;;;;;;5.00;4.03;;;;;;;11.04;35.07;100588.91;4969388;28;20474;-69
2021/04/16 13:11:43;;;;;;;5.82;4.18;;;;;;;11.16;35.26;100594.56;4969436;28;20111;-70
2021/04/16 13:14:08;;;;;;;8.35;5.35;;;;;;;11.15;35.87;100584.94;4964509;28;20047;-70
2021/04/16 13:16:36;;;;;;;9.40;4.95;;;;;;;11.13;35.75;100584.13;4932056;28;20135;-70
2021/04/16 13:19:07;;;;;;;11.55;5.10;;;;;;;11.15;35.45;100590.22;4959636;28;20051;-70
2021/04/16 13:21:38;;;;;;;7.13;4.88;;;;;;;11.25;35.48;100593.38;4961406;28;20046;-69
2021/04/16 13:24:05;;;;;;;7.55;5.72;;;;;;;11.13;35.68;100585.91;4969329;28;20632;-69
2021/04/16 13:26:31;;;;;;;9.95;5.45;;;;;;;11.11;36.86;100579.84;4968334;28;20037;-69
2021/04/16 13:28:56;;;;;;;6.50;5.32;;;;;;;11.05;36.13;100587.97;4968176;28;20039;-70
2021/04/16 13:31:23;;;;;;;7.45;4.35;;;;;;;11.03;35.72;100585.41;4968976;28;20507;-67
2021/04/16 13:33:49;;;;;;;12.90;5.03;;;;;;;11.04;35.90;100578.34;4968785;28;20085;-69
2021/04/16 13:36:22;;;;;;;6.38;5.13;;;;;;;10.99;36.20;100567.13;4968214;28;20046;-69
2021/04/16 13:38:48;;;;;;;5.95;4.32;;;;;;;11.13;35.50;100572.72;4968260;28;20062;-70
2021/04/16 13:41:13;;;;;;;6.65;3.85;;;;;;;11.19;35.42;100567.19;4968712;28;20772;-71
2021/04/16 13:43:39;;;;;;;6.05;4.72;;;;;;;11.26;34.27;100563.41;4968365;28;20827;-69